createdAt,value
2023-05-23T00:00:11.800Z,98037.06
2023-05-23T00:02:44.853Z,98032.50
2023-05-23T00:05:12.798Z,98027.56
2023-05-23T00:07:40.876Z,98024.44
2023-05-23T00:10:10.474Z,98033.09
2023-05-23T00:12:42.377Z,98033.94
2023-05-23T00:15:10.245Z,98040.09
2023-05-23T00:17:39.774Z,98030.41
2023-05-23T00:20:17.088Z,98037.16
2023-05-23T00:22:46.359Z,98035.59
2023-05-23T00:25:13.387Z,98042.69
2023-05-23T00:27:40.695Z,98040.81
2023-05-23T00:30:09.689Z,98033.28
2023-05-23T00:32:37.256Z,98035.41
2023-05-23T00:35:08.153Z,98037.00
2023-05-23T00:37:35.431Z,98041.88
2023-05-23T00:40:02.527Z,98033.78
2023-05-23T00:42:29.617Z,98036.53
2023-05-23T00:44:56.779Z,98044.69
2023-05-23T00:47:24.017Z,98042.50
2023-05-23T00:49:51.249Z,98044.72
2023-05-23T00:52:18.691Z,98038.28
2023-05-23T00:54:47.159Z,98046.84
2023-05-23T00:57:14.348Z,98034.59
2023-05-23T00:59:41.706Z,98047.28
2023-05-23T01:02:09.627Z,98033.63
2023-05-23T01:04:37.085Z,98039.88
2023-05-23T01:07:04.200Z,98050.66
2023-05-23T01:09:32.192Z,98056.56
2023-05-23T01:12:27.221Z,98055.91
2023-05-23T01:15:04.061Z,98063.28
2023-05-23T01:17:56.196Z,98068.69
2023-05-23T01:20:54.885Z,98065.06
2023-05-23T01:23:32.023Z,98066.88
2023-05-23T01:26:45.900Z,98055.16
2023-05-23T01:29:20.582Z,98055.81
2023-05-23T01:31:53.406Z,98059.09
2023-05-23T01:34:21.911Z,98058.03
2023-05-23T01:36:55.159Z,98050.44
2023-05-23T01:39:23.126Z,98053.78
2023-05-23T01:41:51.535Z,98051.84
2023-05-23T01:44:20.937Z,98052.03
2023-05-23T01:46:48.883Z,98058.09
2023-05-23T01:49:18.693Z,98059.09
2023-05-23T01:51:46.557Z,98056.97
2023-05-23T01:54:17.072Z,98061.78
2023-05-23T01:56:44.812Z,98059.22
2023-05-23T01:59:12.888Z,98069.03
2023-05-23T02:01:40.942Z,98063.59
2023-05-23T02:04:08.008Z,98062.50
2023-05-23T02:06:35.041Z,98065.72
2023-05-23T02:09:02.556Z,98067.41
2023-05-23T02:11:32.014Z,98066.88
2023-05-23T02:13:58.972Z,98069.53
2023-05-23T02:16:26.578Z,98070.13
2023-05-23T02:18:56.567Z,98071.16
2023-05-23T02:21:24.665Z,98071.13
2023-05-23T02:23:51.755Z,98071.69
2023-05-23T02:26:19.192Z,98073.84
2023-05-23T02:28:46.612Z,98066.97
2023-05-23T02:31:17.242Z,98073.69
2023-05-23T02:33:44.598Z,98076.47
2023-05-23T02:36:11.955Z,98071.25
2023-05-23T02:38:39.122Z,98077.22
2023-05-23T02:41:06.232Z,98079.66
2023-05-23T02:43:34.038Z,98078.72
2023-05-23T02:46:02.154Z,98078.88
2023-05-23T02:48:29.604Z,98078.19
2023-05-23T02:50:56.745Z,98073.63
2023-05-23T02:53:23.800Z,98082.06
2023-05-23T02:55:51.261Z,98081.88
2023-05-23T02:58:19.141Z,98083.22
2023-05-23T03:00:46.243Z,98086.94
2023-05-23T03:03:13.632Z,98086.94
2023-05-23T03:05:40.942Z,98084.56
2023-05-23T03:08:08.885Z,98085.41
2023-05-23T03:10:38.731Z,98087.50
2023-05-23T03:13:05.853Z,98089.09
2023-05-23T03:15:33.193Z,98094.53
2023-05-23T03:18:00.814Z,98092.13
2023-05-23T03:20:27.968Z,98090.75
2023-05-23T03:22:55.197Z,98091.34
2023-05-23T03:25:23.840Z,98097.31
2023-05-23T03:27:50.985Z,98099.13
2023-05-23T03:30:18.245Z,98091.38
2023-05-23T03:32:45.611Z,98103.25
2023-05-23T03:35:12.917Z,98095.16
2023-05-23T03:37:40.303Z,98097.03
2023-05-23T03:40:08.514Z,98103.00
2023-05-23T03:42:38.597Z,98103.50
2023-05-23T03:45:09.088Z,98101.16
2023-05-23T03:47:36.642Z,98110.06
2023-05-23T03:50:03.988Z,98104.06
2023-05-23T03:52:31.527Z,98100.03
2023-05-23T03:54:58.625Z,98085.97
2023-05-23T03:57:25.744Z,98105.47
2023-05-23T03:59:53.145Z,98097.63
2023-05-23T04:02:22.251Z,98094.38
2023-05-23T04:04:49.421Z,98105.75
2023-05-23T04:07:16.818Z,98102.22
2023-05-23T04:09:44.775Z,98106.00
2023-05-23T04:12:13.176Z,98112.50
2023-05-23T04:14:40.306Z,98114.38
2023-05-23T04:17:09.215Z,98120.63
2023-05-23T04:19:36.777Z,98117.66
2023-05-23T04:22:03.981Z,98120.63
2023-05-23T04:24:31.253Z,98114.41
2023-05-23T04:26:59.361Z,98120.09
2023-05-23T04:29:26.584Z,98120.09
2023-05-23T04:31:55.015Z,98116.81
2023-05-23T04:34:22.433Z,98124.97
2023-05-23T04:36:49.810Z,98121.47
2023-05-23T04:39:17.171Z,98119.84
2023-05-23T04:42:01.595Z,98121.16
2023-05-23T04:44:57.389Z,98127.94
2023-05-23T04:47:42.078Z,98134.69
2023-05-23T04:50:11.371Z,98131.94
2023-05-23T04:52:41.537Z,98136.00
2023-05-23T04:55:10.125Z,98138.72
2023-05-23T04:57:38.063Z,98135.22
2023-05-23T05:00:10.766Z,98132.75
2023-05-23T05:02:39.199Z,98132.69
2023-05-23T05:05:07.449Z,98138.41
2023-05-23T05:07:36.600Z,98145.22
2023-05-23T05:10:04.960Z,98141.69
2023-05-23T05:12:34.494Z,98144.13
2023-05-23T05:15:03.460Z,98152.22
2023-05-23T05:17:30.783Z,98146.53
2023-05-23T05:20:08.569Z,98150.31
2023-05-23T05:22:40.222Z,98154.63
2023-05-23T05:25:08.947Z,98156.53
2023-05-23T05:27:38.195Z,98145.44
2023-05-23T05:30:10.260Z,98159.53
2023-05-23T05:32:48.471Z,98147.63
2023-05-23T05:35:16.885Z,98151.94
2023-05-23T05:37:45.310Z,98154.41
2023-05-23T05:40:13.439Z,98155.75
2023-05-23T05:42:42.916Z,98156.00
2023-05-23T05:45:11.553Z,98149.53
2023-05-23T05:47:39.934Z,98158.94
2023-05-23T05:50:09.462Z,98150.56
2023-05-23T05:52:39.797Z,98160.03
2023-05-23T05:55:11.572Z,98158.91
2023-05-23T05:57:41.321Z,98156.81
2023-05-23T06:00:14.887Z,98161.09
2023-05-23T06:02:55.105Z,98159.44
2023-05-23T06:05:32.891Z,98161.97
2023-05-23T06:08:01.250Z,98161.69
2023-05-23T06:10:28.370Z,98161.09
2023-05-23T06:12:55.845Z,98170.00
2023-05-23T06:15:22.845Z,98166.22
2023-05-23T06:17:51.482Z,98171.03
2023-05-23T06:20:18.911Z,98171.06
2023-05-23T06:22:47.651Z,98168.16
2023-05-23T06:25:14.738Z,98178.34
2023-05-23T06:27:41.763Z,98181.03
2023-05-23T06:30:09.588Z,98164.63
2023-05-23T06:32:36.871Z,98169.25
2023-05-23T06:35:04.563Z,98169.47
2023-05-23T06:37:34.756Z,98183.72
2023-05-23T06:40:01.954Z,98190.13
2023-05-23T06:42:29.428Z,98199.25
2023-05-23T06:45:14.254Z,98192.91
2023-05-23T06:47:45.373Z,98193.78
2023-05-23T06:50:12.533Z,98196.72
2023-05-23T06:52:39.589Z,98196.25
2023-05-23T06:55:07.307Z,98188.06
2023-05-23T06:57:34.658Z,98199.97
2023-05-23T07:00:02.240Z,98200.47
2023-05-23T07:02:30.526Z,98201.31
2023-05-23T07:04:57.755Z,98206.88
2023-05-23T07:07:44.658Z,98206.94
2023-05-23T07:10:11.977Z,98205.00
2023-05-23T07:12:39.204Z,98209.59
2023-05-23T07:15:07.435Z,98219.84
2023-05-23T07:17:36.250Z,98217.38
2023-05-23T07:20:04.712Z,98216.50
2023-05-23T07:22:33.578Z,98224.44
2023-05-23T07:25:00.715Z,98220.03
2023-05-23T07:27:31.550Z,98220.41
2023-05-23T07:29:58.620Z,98219.09
2023-05-23T07:32:25.802Z,98223.06
2023-05-23T07:34:53.288Z,98218.06
2023-05-23T07:37:20.370Z,98219.69
2023-05-23T07:39:47.608Z,98228.47
2023-05-23T07:42:14.669Z,98232.72
2023-05-23T07:44:42.124Z,98224.69
2023-05-23T07:47:09.922Z,98223.31
2023-05-23T07:49:37.047Z,98231.84
2023-05-23T07:52:05.225Z,98227.03
2023-05-23T07:54:33.651Z,98231.94
2023-05-23T07:57:02.528Z,98228.81
2023-05-23T07:59:30.278Z,98231.16
2023-05-23T08:01:58.332Z,98228.50
2023-05-23T08:04:27.065Z,98227.16
2023-05-23T08:07:05.134Z,98229.66
2023-05-23T08:09:49.784Z,98234.53
2023-05-23T08:12:19.516Z,98242.25
2023-05-23T08:14:52.129Z,98248.13
2023-05-23T08:17:38.399Z,98246.56
2023-05-23T08:20:08.899Z,98250.16
2023-05-23T08:22:36.279Z,98253.06
2023-05-23T08:25:06.126Z,98254.09
2023-05-23T08:27:36.790Z,98256.22
2023-05-23T08:30:12.268Z,98256.31
2023-05-23T08:32:39.622Z,98256.16
2023-05-23T08:35:07.135Z,98253.88
2023-05-23T08:37:34.336Z,98255.00
2023-05-23T08:40:01.672Z,98260.59
2023-05-23T08:42:39.038Z,98259.13
2023-05-23T08:45:09.540Z,98263.09
2023-05-23T08:47:39.024Z,98262.81
2023-05-23T08:50:08.506Z,98265.06
2023-05-23T08:52:45.938Z,98264.44
2023-05-23T08:55:27.325Z,98261.56
2023-05-23T08:57:56.218Z,98272.16
2023-05-23T09:00:33.427Z,98269.66
2023-05-23T09:03:00.744Z,98281.31
2023-05-23T09:05:42.901Z,98274.63
2023-05-23T09:08:10.715Z,98284.56
2023-05-23T09:10:38.104Z,98281.75
2023-05-23T09:13:06.431Z,98285.59
2023-05-23T09:15:33.482Z,98285.06
2023-05-23T09:18:04.703Z,98289.22
2023-05-23T09:20:33.757Z,98290.03
2023-05-23T09:23:07.505Z,98289.06
2023-05-23T09:25:46.418Z,98287.91
2023-05-23T09:28:14.192Z,98294.63
2023-05-23T09:30:41.474Z,98296.69
2023-05-23T09:33:08.744Z,98292.69
2023-05-23T09:35:36.327Z,98297.28
2023-05-23T09:38:03.801Z,98301.91
2023-05-23T09:40:33.021Z,98291.41
2023-05-23T09:43:07.391Z,98296.78
2023-05-23T09:45:34.751Z,98291.16
2023-05-23T09:48:02.683Z,98300.38
2023-05-23T09:50:33.913Z,98299.16
2023-05-23T09:53:02.437Z,98305.81
2023-05-23T09:55:29.530Z,98301.13
2023-05-23T09:57:59.917Z,98313.22
2023-05-23T10:00:28.660Z,98304.50
2023-05-23T10:03:14.106Z,98310.78
2023-05-23T10:05:55.806Z,98307.94
2023-05-23T10:08:27.383Z,98306.59
2023-05-23T10:10:57.470Z,98306.78
2023-05-23T10:13:28.957Z,98304.09
2023-05-23T10:16:12.678Z,98300.81
2023-05-23T10:18:49.530Z,98302.03
2023-05-23T10:21:21.226Z,98304.81
2023-05-23T10:23:49.185Z,98308.38
2023-05-23T10:26:18.282Z,98312.13
2023-05-23T10:28:47.488Z,98309.81
2023-05-23T10:31:14.556Z,98310.19
2023-05-23T10:33:50.374Z,98312.31
2023-05-23T10:36:30.824Z,98310.63
2023-05-23T10:39:10.145Z,98318.56
2023-05-23T10:42:10.197Z,98314.00
2023-05-23T10:44:37.199Z,98327.47
2023-05-23T10:47:05.126Z,98319.72
2023-05-23T10:49:42.031Z,98318.75
2023-05-23T10:52:12.062Z,98321.59
2023-05-23T10:54:49.236Z,98327.28
2023-05-23T10:57:20.389Z,98331.94
2023-05-23T10:59:51.077Z,98326.59
2023-05-23T11:02:28.342Z,98328.84
2023-05-23T11:05:25.058Z,98329.59
2023-05-23T11:08:11.768Z,98323.00
2023-05-23T11:11:01.172Z,98322.88
2023-05-23T11:13:52.968Z,98329.06
2023-05-23T11:16:40.193Z,98332.75
2023-05-23T11:19:19.930Z,98333.78
2023-05-23T11:21:52.462Z,98338.31
2023-05-23T11:24:19.576Z,98338.50
2023-05-23T11:27:03.982Z,98339.38
2023-05-23T11:29:31.443Z,98338.25
2023-05-23T11:31:58.698Z,98341.88
2023-05-23T11:34:26.555Z,98331.53
2023-05-23T11:36:56.306Z,98331.78
2023-05-23T11:39:24.138Z,98329.34
2023-05-23T11:42:03.345Z,98333.47
2023-05-23T11:44:30.592Z,98335.63
2023-05-23T11:47:06.993Z,98329.72
2023-05-23T11:49:40.059Z,98325.09
2023-05-23T11:52:07.629Z,98328.59
2023-05-23T11:54:34.681Z,98327.56
2023-05-23T11:57:02.701Z,98323.00
2023-05-23T11:59:30.026Z,98333.47
2023-05-23T12:01:59.624Z,98325.59
2023-05-23T12:04:27.176Z,98333.53
2023-05-23T12:06:54.388Z,98316.25
2023-05-23T12:09:21.873Z,98318.00
2023-05-23T12:11:49.921Z,98309.59
2023-05-23T12:14:18.199Z,98310.84
2023-05-23T12:16:46.981Z,98306.97
2023-05-23T12:19:17.203Z,98311.47
2023-05-23T12:21:47.473Z,98310.66
2023-05-23T12:24:20.484Z,98304.66
2023-05-23T12:26:56.551Z,98308.97
2023-05-23T12:29:35.031Z,98310.22
2023-05-23T12:32:05.152Z,98306.31
2023-05-23T12:34:32.390Z,98302.94
2023-05-23T12:37:18.015Z,98299.66
2023-05-23T12:39:46.800Z,98300.97
2023-05-23T12:42:13.990Z,98302.53
2023-05-23T12:44:44.109Z,98299.44
2023-05-23T12:47:11.269Z,98304.59
2023-05-23T12:49:38.630Z,98305.41
2023-05-23T12:52:06.005Z,98296.22
2023-05-23T12:54:32.968Z,98304.84
2023-05-23T12:57:00.041Z,98308.81
2023-05-23T12:59:27.166Z,98314.00
2023-05-23T13:01:54.990Z,98309.06
2023-05-23T13:04:22.134Z,98303.16
2023-05-23T13:06:49.198Z,98294.59
2023-05-23T13:09:16.182Z,98292.34
2023-05-23T13:11:43.370Z,98288.59
2023-05-23T13:14:10.716Z,98292.69
2023-05-23T13:16:39.209Z,98292.97
2023-05-23T13:19:06.605Z,98295.34
2023-05-23T13:21:33.699Z,98291.03
2023-05-23T13:24:00.721Z,98298.13
2023-05-23T13:26:27.697Z,98297.03
2023-05-23T13:28:54.727Z,98292.19
2023-05-23T13:31:24.073Z,98305.34
2023-05-23T13:33:51.524Z,98285.63
2023-05-23T13:36:18.538Z,98289.75
2023-05-23T13:38:45.598Z,98286.47
2023-05-23T13:41:12.609Z,98285.81
2023-05-23T13:43:43.148Z,98285.56
2023-05-23T13:46:10.580Z,98283.81
2023-05-23T13:48:37.746Z,98284.53
2023-05-23T13:51:05.341Z,98292.72
2023-05-23T13:53:32.309Z,98281.72
2023-05-23T13:55:59.401Z,98282.69
2023-05-23T13:58:26.624Z,98278.88
2023-05-23T14:00:54.193Z,98287.13
2023-05-23T14:03:21.493Z,98289.63
2023-05-23T14:05:48.708Z,98285.28
2023-05-23T14:08:16.323Z,98283.00
2023-05-23T14:10:43.885Z,98279.88
2023-05-23T14:13:12.098Z,98283.38
2023-05-23T14:15:39.725Z,98281.19
2023-05-23T14:18:06.867Z,98277.44
2023-05-23T14:20:33.924Z,98282.34
2023-05-23T14:23:01.282Z,98278.03
2023-05-23T14:25:28.296Z,98277.16
2023-05-23T14:27:55.777Z,98274.44
2023-05-23T14:30:23.643Z,98279.09
2023-05-23T14:32:51.109Z,98286.84
2023-05-23T14:35:18.243Z,98278.75
2023-05-23T14:37:46.763Z,98284.56
2023-05-23T14:40:16.204Z,98292.59
2023-05-23T14:42:43.264Z,98292.75
2023-05-23T14:45:11.034Z,98296.72
2023-05-23T14:47:38.066Z,98283.41
2023-05-23T14:50:05.996Z,98279.41
2023-05-23T14:52:32.964Z,98285.38
2023-05-23T14:55:01.056Z,98283.38
2023-05-23T14:57:28.176Z,98270.38
2023-05-23T14:59:56.254Z,98272.00
2023-05-23T15:02:23.294Z,98273.19
2023-05-23T15:04:50.665Z,98278.28
2023-05-23T15:07:18.348Z,98275.53
2023-05-23T15:09:46.106Z,98278.38
2023-05-23T15:12:15.472Z,98276.72
2023-05-23T15:14:43.540Z,98276.47
2023-05-23T15:17:13.107Z,98274.88
2023-05-23T15:19:42.833Z,98283.78
2023-05-23T15:22:18.420Z,98278.91
2023-05-23T15:25:00.447Z,98280.47
2023-05-23T15:27:27.691Z,98281.59
2023-05-23T15:29:54.753Z,98275.94
2023-05-23T15:32:22.055Z,98271.28
2023-05-23T15:34:49.519Z,98269.13
2023-05-23T15:37:18.001Z,98280.16
2023-05-23T15:39:45.521Z,98274.88
2023-05-23T15:42:12.559Z,98275.06
2023-05-23T15:44:39.773Z,98264.47
2023-05-23T15:47:07.077Z,98266.94
2023-05-23T15:49:34.965Z,98266.44
2023-05-23T15:52:01.926Z,98265.81
2023-05-23T15:54:29.181Z,98268.78
2023-05-23T15:56:56.209Z,98273.94
2023-05-23T15:59:23.223Z,98280.69
2023-05-23T16:01:50.228Z,98272.91
2023-05-23T16:04:17.433Z,98274.25
2023-05-23T16:06:44.471Z,98277.25
2023-05-23T16:09:11.708Z,98273.22
2023-05-23T16:11:38.849Z,98270.81
2023-05-23T16:14:06.451Z,98265.34
2023-05-23T16:16:33.510Z,98268.38
2023-05-23T16:19:00.571Z,98268.88
2023-05-23T16:21:27.580Z,98261.50
2023-05-23T16:23:54.592Z,98266.69
2023-05-23T16:26:21.640Z,98262.94
2023-05-23T16:28:48.622Z,98254.28
2023-05-23T16:31:16.924Z,98259.38
2023-05-23T16:33:47.293Z,98256.25
2023-05-23T16:36:14.283Z,98262.13
2023-05-23T16:38:41.465Z,98262.44
2023-05-23T16:41:08.775Z,98267.56
2023-05-23T16:43:36.602Z,98270.00
2023-05-23T16:46:03.890Z,98263.78
2023-05-23T16:48:31.397Z,98260.78
2023-05-23T16:50:58.809Z,98266.44
2023-05-23T16:53:28.373Z,98266.44
2023-05-23T16:55:55.510Z,98265.41
2023-05-23T16:58:22.697Z,98264.50
2023-05-23T17:00:49.684Z,98270.00
2023-05-23T17:03:16.867Z,98267.25
2023-05-23T17:05:44.269Z,98270.25
2023-05-23T17:08:11.505Z,98263.22
2023-05-23T17:10:38.609Z,98267.25
2023-05-23T17:13:05.751Z,98263.75
2023-05-23T17:15:32.868Z,98272.97
2023-05-23T17:18:00.318Z,98272.38
2023-05-23T17:20:27.351Z,98267.25
2023-05-23T17:22:55.232Z,98273.47
2023-05-23T17:25:22.419Z,98274.31
2023-05-23T17:27:49.466Z,98270.78
2023-05-23T17:30:18.833Z,98275.09
2023-05-23T17:32:47.172Z,98279.69
2023-05-23T17:35:14.532Z,98275.66
2023-05-23T17:37:43.906Z,98282.44
2023-05-23T17:40:12.832Z,98285.16
2023-05-23T17:42:41.577Z,98282.69
2023-05-23T17:45:09.882Z,98286.78
2023-05-23T17:47:37.207Z,98298.34
2023-05-23T17:50:08.424Z,98299.13
2023-05-23T17:52:35.789Z,98307.84
2023-05-23T17:55:02.757Z,98306.81
2023-05-23T17:57:33.161Z,98315.00
2023-05-23T18:00:00.257Z,98312.13
2023-05-23T18:02:27.862Z,98312.41
2023-05-23T18:04:55.791Z,98317.16
2023-05-23T18:07:22.824Z,98315.06
2023-05-23T18:09:49.944Z,98321.56
2023-05-23T18:12:17.841Z,98328.56
2023-05-23T18:14:45.508Z,98324.28
2023-05-23T18:17:13.133Z,98318.38
2023-05-23T18:19:42.143Z,98320.00
2023-05-23T18:22:09.604Z,98319.19
2023-05-23T18:24:36.679Z,98330.00
2023-05-23T18:27:04.648Z,98335.41
2023-05-23T18:29:32.011Z,98331.88
2023-05-23T18:31:59.025Z,98335.69
2023-05-23T18:34:28.530Z,98339.13
2023-05-23T18:36:56.189Z,98342.34
2023-05-23T18:39:24.009Z,98342.31
2023-05-23T18:41:51.045Z,98339.16
2023-05-23T18:44:20.734Z,98340.09
2023-05-23T18:46:48.263Z,98337.03
2023-05-23T18:49:15.621Z,98334.38
2023-05-23T18:51:42.989Z,98341.81
2023-05-23T18:54:09.997Z,98355.34
2023-05-23T18:56:37.183Z,98360.09
2023-05-23T18:59:04.255Z,98357.59
2023-05-23T19:01:31.352Z,98368.88
2023-05-23T19:03:58.691Z,98368.50
2023-05-23T19:06:26.781Z,98364.22
2023-05-23T19:08:53.857Z,98376.75
2023-05-23T19:11:21.918Z,98378.63
2023-05-23T19:13:49.261Z,98377.28
2023-05-23T19:16:17.515Z,98377.66
2023-05-23T19:18:45.146Z,98386.00
2023-05-23T19:21:12.822Z,98396.44
2023-05-23T19:23:40.188Z,98398.00
2023-05-23T19:26:07.739Z,98411.28
2023-05-23T19:28:34.735Z,98407.91
2023-05-23T19:31:02.162Z,98413.72
2023-05-23T19:33:29.125Z,98428.53
2023-05-23T19:35:56.147Z,98419.25
2023-05-23T19:38:23.116Z,98424.06
2023-05-23T19:40:50.102Z,98417.09
2023-05-23T19:43:17.550Z,98428.09
2023-05-23T19:45:44.928Z,98427.38
2023-05-23T19:48:12.573Z,98438.72
2023-05-23T19:50:40.993Z,98437.94
2023-05-23T19:53:08.217Z,98444.19
2023-05-23T19:55:35.701Z,98437.63
2023-05-23T19:58:02.891Z,98446.38
2023-05-23T20:00:29.991Z,98450.16
2023-05-23T20:02:57.122Z,98454.06
2023-05-23T20:05:29.416Z,98446.28
2023-05-23T20:07:56.652Z,98449.84
2023-05-23T20:10:25.275Z,98458.50
2023-05-23T20:12:52.653Z,98461.22
2023-05-23T20:15:31.312Z,98463.31
2023-05-23T20:18:07.430Z,98465.44
2023-05-23T20:20:34.594Z,98468.94
2023-05-23T20:23:01.766Z,98467.16
2023-05-23T20:25:28.786Z,98470.56
2023-05-23T20:27:58.884Z,98470.00
2023-05-23T20:30:34.438Z,98484.56
2023-05-23T20:33:01.927Z,98481.75
2023-05-23T20:35:28.923Z,98483.22
2023-05-23T20:37:56.029Z,98479.06
2023-05-23T20:40:23.116Z,98477.53
2023-05-23T20:42:50.178Z,98484.19
2023-05-23T20:45:17.332Z,98482.41
2023-05-23T20:47:46.318Z,98484.84
2023-05-23T20:50:13.668Z,98473.78
2023-05-23T20:52:42.935Z,98480.38
2023-05-23T20:55:10.866Z,98484.53
2023-05-23T20:57:38.192Z,98484.63
2023-05-23T21:00:13.166Z,98492.50
2023-05-23T21:02:43.967Z,98493.44
2023-05-23T21:05:12.529Z,98491.53
2023-05-23T21:07:39.636Z,98493.28
2023-05-23T21:10:07.231Z,98496.16
2023-05-23T21:12:34.389Z,98500.00
2023-05-23T21:15:01.519Z,98505.88
2023-05-23T21:17:28.777Z,98513.09
2023-05-23T21:19:55.824Z,98510.53
2023-05-23T21:22:22.827Z,98513.78
2023-05-23T21:24:50.489Z,98521.69
2023-05-23T21:27:17.735Z,98520.16
2023-05-23T21:29:47.094Z,98526.94
2023-05-23T21:32:14.326Z,98526.59
2023-05-23T21:34:41.788Z,98528.47
2023-05-23T21:37:08.904Z,98512.78
2023-05-23T21:39:49.960Z,98516.19
2023-05-23T21:42:19.455Z,98520.28
2023-05-23T21:44:46.643Z,98519.63
2023-05-23T21:47:13.767Z,98522.97
2023-05-23T21:49:40.796Z,98530.94
2023-05-23T21:52:07.856Z,98530.44
2023-05-23T21:54:35.101Z,98522.00
2023-05-23T21:57:02.243Z,98528.78
2023-05-23T21:59:29.300Z,98525.19
2023-05-23T22:01:56.434Z,98528.44
2023-05-23T22:04:23.532Z,98532.78
2023-05-23T22:06:51.467Z,98537.03
2023-05-23T22:09:18.651Z,98544.44
2023-05-23T22:11:45.688Z,98540.63
2023-05-23T22:14:13.120Z,98540.63
2023-05-23T22:16:40.653Z,98547.69
2023-05-23T22:19:12.487Z,98545.44
2023-05-23T22:21:39.824Z,98541.16
2023-05-23T22:24:07.342Z,98547.25
2023-05-23T22:26:34.579Z,98548.75
2023-05-23T22:29:02.146Z,98545.53
2023-05-23T22:31:29.233Z,98552.75
2023-05-23T22:33:56.998Z,98544.03
2023-05-23T22:36:24.174Z,98549.44
2023-05-23T22:38:51.170Z,98549.28
2023-05-23T22:41:18.480Z,98543.94
2023-05-23T22:43:46.742Z,98551.38
2023-05-23T22:46:14.147Z,98551.63
2023-05-23T22:48:41.427Z,98549.03
2023-05-23T22:51:09.774Z,98548.06
2023-05-23T22:53:36.960Z,98557.00
2023-05-23T22:56:04.157Z,98557.47
2023-05-23T22:58:31.320Z,98549.34
2023-05-23T23:00:58.379Z,98552.94
2023-05-23T23:03:25.457Z,98547.31
2023-05-23T23:05:52.523Z,98539.41
2023-05-23T23:08:19.763Z,98542.09
2023-05-23T23:10:46.967Z,98553.88
2023-05-23T23:13:14.217Z,98550.03
2023-05-23T23:15:42.799Z,98547.47
2023-05-23T23:18:10.219Z,98545.75
2023-05-23T23:20:38.890Z,98540.41
2023-05-23T23:23:06.036Z,98545.38
2023-05-23T23:25:33.439Z,98538.03
2023-05-23T23:28:00.835Z,98537.41
2023-05-23T23:30:28.031Z,98530.41
2023-05-23T23:32:55.104Z,98535.34
2023-05-23T23:35:22.303Z,98527.03
2023-05-23T23:37:49.317Z,98528.56
2023-05-23T23:40:16.622Z,98536.34
2023-05-23T23:42:43.642Z,98538.09
2023-05-23T23:45:11.298Z,98535.41
2023-05-23T23:47:38.347Z,98546.16
2023-05-23T23:50:06.749Z,98542.72
2023-05-23T23:52:33.859Z,98539.88
2023-05-23T23:55:01.655Z,98539.59
2023-05-23T23:57:28.693Z,98535.41
2023-05-23T23:59:56.205Z,98536.28
